sensor_id;sensor_type;location;lat;lon;timestamp;P1;durP1;ratioP1;P2;durP2;ratioP2
10120;SDS011;5100;45.176;5.714;2023-03-14T00:00:15;0.80;;;0.80;;
10120;SDS011;5100;45.176;5.714;2023-03-14T00:02:43;1.98;;;1.00;;
10120;SDS011;5100;45.176;5.714;2023-03-14T00:05:09;1.00;;;0.90;;
10120;SDS011;5100;45.176;5.714;2023-03-14T00:07:37;0.70;;;0.70;;
10120;SDS011;5100;45.176;5.714;2023-03-14T00:10:05;0.88;;;0.52;;
10120;SDS011;5100;45.176;5.714;2023-03-14T00:12:35;0.70;;;0.60;;
10120;SDS011;5100;45.176;5.714;2023-03-14T00:15:01;0.80;;;0.80;;
10120;SDS011;5100;45.176;5.714;2023-03-14T00:17:30;0.55;;;0.55;;
10120;SDS011;5100;45.176;5.714;2023-03-14T00:19:56;0.60;;;0.60;;
10120;SDS011;5100;45.176;5.714;2023-03-14T00:22:32;1.30;;;0.60;;
10120;SDS011;5100;45.176;5.714;2023-03-14T00:25:01;0.70;;;0.70;;
10120;SDS011;5100;45.176;5.714;2023-03-14T00:27:28;0.80;;;0.80;;
10120;SDS011;5100;45.176;5.714;2023-03-14T00:29:55;0.93;;;0.90;;
10120;SDS011;5100;45.176;5.714;2023-03-14T00:32:21;0.98;;;0.90;;
10120;SDS011;5100;45.176;5.714;2023-03-14T00:34:47;0.80;;;0.80;;
10120;SDS011;5100;45.176;5.714;2023-03-14T00:37:14;0.75;;;0.75;;
10120;SDS011;5100;45.176;5.714;2023-03-14T00:39:40;0.80;;;0.80;;
10120;SDS011;5100;45.176;5.714;2023-03-14T00:42:06;0.88;;;0.88;;
10120;SDS011;5100;45.176;5.714;2023-03-14T00:44:33;1.02;;;0.82;;
10120;SDS011;5100;45.176;5.714;2023-03-14T00:46:59;1.30;;;0.90;;
10120;SDS011;5100;45.176;5.714;2023-03-14T00:49:26;1.87;;;0.95;;
10120;SDS011;5100;45.176;5.714;2023-03-14T00:51:52;1.37;;;1.00;;
10120;SDS011;5100;45.176;5.714;2023-03-14T00:54:19;1.98;;;0.90;;
10120;SDS011;5100;45.176;5.714;2023-03-14T00:56:45;0.70;;;0.70;;
10120;SDS011;5100;45.176;5.714;2023-03-14T00:59:12;0.75;;;0.75;;
10120;SDS011;5100;45.176;5.714;2023-03-14T01:01:39;0.88;;;0.80;;
10120;SDS011;5100;45.176;5.714;2023-03-14T01:04:05;2.33;;;1.33;;
10120;SDS011;5100;45.176;5.714;2023-03-14T01:06:32;0.68;;;0.68;;
10120;SDS011;5100;45.176;5.714;2023-03-14T01:08:59;2.28;;;0.90;;
10120;SDS011;5100;45.176;5.714;2023-03-14T01:11:30;0.90;;;0.70;;
10120;SDS011;5100;45.176;5.714;2023-03-14T01:13:58;0.82;;;0.65;;
10120;SDS011;5100;45.176;5.714;2023-03-14T01:16:28;0.93;;;0.80;;
10120;SDS011;5100;45.176;5.714;2023-03-14T01:18:59;0.95;;;0.80;;
10120;SDS011;5100;45.176;5.714;2023-03-14T01:21:28;1.83;;;0.80;;
10120;SDS011;5100;45.176;5.714;2023-03-14T01:23:59;0.70;;;0.70;;
10120;SDS011;5100;45.176;5.714;2023-03-14T01:26:29;0.73;;;0.73;;
10120;SDS011;5100;45.176;5.714;2023-03-14T01:28:57;0.82;;;0.70;;
10120;SDS011;5100;45.176;5.714;2023-03-14T01:31:24;0.70;;;0.70;;
10120;SDS011;5100;45.176;5.714;2023-03-14T01:33:51;0.73;;;0.73;;
10120;SDS011;5100;45.176;5.714;2023-03-14T01:36:18;1.37;;;0.90;;
10120;SDS011;5100;45.176;5.714;2023-03-14T01:38:45;1.37;;;1.00;;
10120;SDS011;5100;45.176;5.714;2023-03-14T01:41:14;0.90;;;0.90;;
10120;SDS011;5100;45.176;5.714;2023-03-14T01:43:42;0.80;;;0.80;;
10120;SDS011;5100;45.176;5.714;2023-03-14T01:46:12;0.90;;;0.90;;
10120;SDS011;5100;45.176;5.714;2023-03-14T01:48:46;0.77;;;0.77;;
10120;SDS011;5100;45.176;5.714;2023-03-14T01:51:21;0.70;;;0.70;;
10120;SDS011;5100;45.176;5.714;2023-03-14T01:54:01;1.80;;;0.80;;
10120;SDS011;5100;45.176;5.714;2023-03-14T01:56:35;0.75;;;0.70;;
10120;SDS011;5100;45.176;5.714;2023-03-14T01:59:03;0.65;;;0.65;;
10120;SDS011;5100;45.176;5.714;2023-03-14T02:01:32;1.80;;;0.80;;
10120;SDS011;5100;45.176;5.714;2023-03-14T02:04:00;0.82;;;0.82;;
10120;SDS011;5100;45.176;5.714;2023-03-14T02:06:33;0.70;;;0.70;;
10120;SDS011;5100;45.176;5.714;2023-03-14T02:09:06;0.70;;;0.70;;
10120;SDS011;5100;45.176;5.714;2023-03-14T02:11:33;0.88;;;0.65;;
10120;SDS011;5100;45.176;5.714;2023-03-14T02:14:01;1.15;;;1.05;;
10120;SDS011;5100;45.176;5.714;2023-03-14T02:16:31;1.05;;;0.95;;
10120;SDS011;5100;45.176;5.714;2023-03-14T02:18:57;1.95;;;0.90;;
10120;SDS011;5100;45.176;5.714;2023-03-14T02:26:43;1.30;;;0.90;;
10120;SDS011;5100;45.176;5.714;2023-03-14T02:29:30;1.05;;;0.80;;
10120;SDS011;5100;45.176;5.714;2023-03-14T02:31:59;1.20;;;0.90;;
10120;SDS011;5100;45.176;5.714;2023-03-14T02:34:26;0.80;;;0.80;;
10120;SDS011;5100;45.176;5.714;2023-03-14T02:36:53;2.55;;;0.85;;
10120;SDS011;5100;45.176;5.714;2023-03-14T02:39:21;0.85;;;0.85;;
10120;SDS011;5100;45.176;5.714;2023-03-14T02:41:55;0.68;;;0.68;;
10120;SDS011;5100;45.176;5.714;2023-03-14T02:44:21;1.75;;;0.80;;
10120;SDS011;5100;45.176;5.714;2023-03-14T02:46:47;0.82;;;0.70;;
10120;SDS011;5100;45.176;5.714;2023-03-14T02:49:14;1.02;;;0.90;;
10120;SDS011;5100;45.176;5.714;2023-03-14T02:51:40;0.80;;;0.80;;
10120;SDS011;5100;45.176;5.714;2023-03-14T02:54:08;1.77;;;0.70;;
10120;SDS011;5100;45.176;5.714;2023-03-14T02:56:35;0.62;;;0.62;;
10120;SDS011;5100;45.176;5.714;2023-03-14T02:59:03;0.95;;;0.80;;
10120;SDS011;5100;45.176;5.714;2023-03-14T03:01:31;1.73;;;0.80;;
10120;SDS011;5100;45.176;5.714;2023-03-14T03:03:59;0.60;;;0.60;;
10120;SDS011;5100;45.176;5.714;2023-03-14T03:06:25;0.70;;;0.70;;
10120;SDS011;5100;45.176;5.714;2023-03-14T03:08:52;1.00;;;0.80;;
10120;SDS011;5100;45.176;5.714;2023-03-14T03:11:19;0.70;;;0.70;;
10120;SDS011;5100;45.176;5.714;2023-03-14T03:13:46;0.82;;;0.82;;
10120;SDS011;5100;45.176;5.714;2023-03-14T03:16:13;0.85;;;0.80;;
10120;SDS011;5100;45.176;5.714;2023-03-14T03:18:41;0.70;;;0.70;;
10120;SDS011;5100;45.176;5.714;2023-03-14T03:21:07;0.90;;;0.90;;
10120;SDS011;5100;45.176;5.714;2023-03-14T03:23:34;1.48;;;0.80;;
10120;SDS011;5100;45.176;5.714;2023-03-14T03:26:03;0.70;;;0.70;;
10120;SDS011;5100;45.176;5.714;2023-03-14T03:28:30;1.12;;;0.80;;
10120;SDS011;5100;45.176;5.714;2023-03-14T03:30:57;0.60;;;0.60;;
10120;SDS011;5100;45.176;5.714;2023-03-14T03:33:24;0.70;;;0.70;;
10120;SDS011;5100;45.176;5.714;2023-03-14T03:35:50;0.70;;;0.70;;
10120;SDS011;5100;45.176;5.714;2023-03-14T03:38:18;0.70;;;0.70;;
10120;SDS011;5100;45.176;5.714;2023-03-14T03:40:47;0.65;;;0.65;;
10120;SDS011;5100;45.176;5.714;2023-03-14T03:43:14;0.82;;;0.82;;
10120;SDS011;5100;45.176;5.714;2023-03-14T03:45:40;0.90;;;0.90;;
10120;SDS011;5100;45.176;5.714;2023-03-14T03:48:07;0.80;;;0.80;;
10120;SDS011;5100;45.176;5.714;2023-03-14T03:50:33;0.75;;;0.73;;
10120;SDS011;5100;45.176;5.714;2023-03-14T03:52:59;0.77;;;0.77;;
10120;SDS011;5100;45.176;5.714;2023-03-14T03:55:26;0.80;;;0.80;;
10120;SDS011;5100;45.176;5.714;2023-03-14T03:57:53;0.82;;;0.80;;
10120;SDS011;5100;45.176;5.714;2023-03-14T04:00:19;0.70;;;0.70;;
10120;SDS011;5100;45.176;5.714;2023-03-14T04:02:46;1.37;;;0.90;;
10120;SDS011;5100;45.176;5.714;2023-03-14T04:05:13;0.88;;;0.88;;
10120;SDS011;5100;45.176;5.714;2023-03-14T04:07:41;0.70;;;0.70;;
10120;SDS011;5100;45.176;5.714;2023-03-14T04:10:08;1.17;;;0.88;;
10120;SDS011;5100;45.176;5.714;2023-03-14T04:12:35;1.42;;;0.80;;
10120;SDS011;5100;45.176;5.714;2023-03-14T04:15:01;1.10;;;1.10;;
10120;SDS011;5100;45.176;5.714;2023-03-14T04:17:29;0.90;;;0.90;;
10120;SDS011;5100;45.176;5.714;2023-03-14T04:19:55;1.23;;;0.80;;
10120;SDS011;5100;45.176;5.714;2023-03-14T04:22:23;0.98;;;0.98;;
10120;SDS011;5100;45.176;5.714;2023-03-14T04:24:50;1.00;;;1.00;;
10120;SDS011;5100;45.176;5.714;2023-03-14T04:27:17;0.90;;;0.90;;
10120;SDS011;5100;45.176;5.714;2023-03-14T04:29:44;1.42;;;1.10;;
10120;SDS011;5100;45.176;5.714;2023-03-14T04:32:13;0.80;;;0.80;;
10120;SDS011;5100;45.176;5.714;2023-03-14T04:34:40;0.88;;;0.80;;
10120;SDS011;5100;45.176;5.714;2023-03-14T04:37:07;0.93;;;0.93;;
10120;SDS011;5100;45.176;5.714;2023-03-14T04:39:34;2.00;;;0.80;;
10120;SDS011;5100;45.176;5.714;2023-03-14T04:42:02;1.83;;;0.93;;
10120;SDS011;5100;45.176;5.714;2023-03-14T04:44:28;0.80;;;0.80;;
10120;SDS011;5100;45.176;5.714;2023-03-14T04:46:56;1.48;;;0.80;;
10120;SDS011;5100;45.176;5.714;2023-03-14T04:49:22;0.70;;;0.70;;
10120;SDS011;5100;45.176;5.714;2023-03-14T04:51:49;0.77;;;0.77;;
10120;SDS011;5100;45.176;5.714;2023-03-14T04:54:19;0.70;;;0.70;;
10120;SDS011;5100;45.176;5.714;2023-03-14T04:56:48;0.90;;;0.90;;
10120;SDS011;5100;45.176;5.714;2023-03-14T04:59:15;0.70;;;0.70;;
10120;SDS011;5100;45.176;5.714;2023-03-14T05:01:42;1.00;;;1.00;;
10120;SDS011;5100;45.176;5.714;2023-03-14T05:04:09;1.37;;;0.80;;
10120;SDS011;5100;45.176;5.714;2023-03-14T05:06:35;2.97;;;1.07;;
10120;SDS011;5100;45.176;5.714;2023-03-14T05:09:03;1.75;;;0.70;;
10120;SDS011;5100;45.176;5.714;2023-03-14T05:11:30;0.83;;;0.83;;
10120;SDS011;5100;45.176;5.714;2023-03-14T05:13:58;1.20;;;0.90;;
10120;SDS011;5100;45.176;5.714;2023-03-14T05:16:25;1.27;;;0.80;;
10120;SDS011;5100;45.176;5.714;2023-03-14T05:18:52;1.05;;;0.90;;
10120;SDS011;5100;45.176;5.714;2023-03-14T05:21:21;0.90;;;0.90;;
10120;SDS011;5100;45.176;5.714;2023-03-14T05:23:48;1.20;;;0.80;;
10120;SDS011;5100;45.176;5.714;2023-03-14T05:26:15;2.53;;;0.90;;
10120;SDS011;5100;45.176;5.714;2023-03-14T05:28:43;1.60;;;0.90;;
10120;SDS011;5100;45.176;5.714;2023-03-14T05:31:09;1.10;;;1.00;;
10120;SDS011;5100;45.176;5.714;2023-03-14T05:33:38;2.80;;;1.13;;
10120;SDS011;5100;45.176;5.714;2023-03-14T05:36:05;1.50;;;1.30;;
10120;SDS011;5100;45.176;5.714;2023-03-14T05:38:33;1.43;;;1.17;;
10120;SDS011;5100;45.176;5.714;2023-03-14T05:41:00;1.13;;;0.90;;
10120;SDS011;5100;45.176;5.714;2023-03-14T05:43:27;1.13;;;0.90;;
10120;SDS011;5100;45.176;5.714;2023-03-14T05:45:54;1.37;;;0.90;;
10120;SDS011;5100;45.176;5.714;2023-03-14T05:48:22;0.90;;;0.90;;
10120;SDS011;5100;45.176;5.714;2023-03-14T05:50:53;2.33;;;1.00;;
10120;SDS011;5100;45.176;5.714;2023-03-14T05:53:21;4.85;;;4.45;;
10120;SDS011;5100;45.176;5.714;2023-03-14T05:55:50;3.70;;;3.30;;
10120;SDS011;5100;45.176;5.714;2023-03-14T05:58:18;3.00;;;2.70;;
10120;SDS011;5100;45.176;5.714;2023-03-14T06:00:45;0.98;;;0.98;;
10120;SDS011;5100;45.176;5.714;2023-03-14T06:03:13;0.90;;;0.90;;
10120;SDS011;5100;45.176;5.714;2023-03-14T06:05:40;1.67;;;1.33;;
10120;SDS011;5100;45.176;5.714;2023-03-14T06:08:06;2.35;;;1.30;;
10120;SDS011;5100;45.176;5.714;2023-03-14T06:10:34;3.03;;;1.70;;
10120;SDS011;5100;45.176;5.714;2023-03-14T06:13:01;2.70;;;1.50;;
10120;SDS011;5100;45.176;5.714;2023-03-14T06:15:27;2.20;;;1.60;;
10120;SDS011;5100;45.176;5.714;2023-03-14T06:17:55;2.37;;;1.60;;
10120;SDS011;5100;45.176;5.714;2023-03-14T06:20:22;1.50;;;1.40;;
10120;SDS011;5100;45.176;5.714;2023-03-14T06:22:48;2.67;;;1.20;;
10120;SDS011;5100;45.176;5.714;2023-03-14T06:25:15;1.20;;;1.10;;
10120;SDS011;5100;45.176;5.714;2023-03-14T06:27:43;1.30;;;1.20;;
10120;SDS011;5100;45.176;5.714;2023-03-14T06:30:10;2.53;;;1.40;;
10120;SDS011;5100;45.176;5.714;2023-03-14T06:32:37;2.20;;;1.20;;
10120;SDS011;5100;45.176;5.714;2023-03-14T06:35:04;1.23;;;1.00;;
10120;SDS011;5100;45.176;5.714;2023-03-14T06:37:33;3.03;;;1.27;;
10120;SDS011;5100;45.176;5.714;2023-03-14T06:40:01;1.00;;;1.00;;
10120;SDS011;5100;45.176;5.714;2023-03-14T06:42:29;1.27;;;0.90;;
10120;SDS011;5100;45.176;5.714;2023-03-14T06:44:55;0.97;;;0.90;;
10120;SDS011;5100;45.176;5.714;2023-03-14T06:47:24;1.50;;;1.05;;
10120;SDS011;5100;45.176;5.714;2023-03-14T06:49:51;0.80;;;0.80;;
10120;SDS011;5100;45.176;5.714;2023-03-14T06:52:18;1.70;;;1.60;;
10120;SDS011;5100;45.176;5.714;2023-03-14T06:54:44;1.73;;;1.20;;
10120;SDS011;5100;45.176;5.714;2023-03-14T06:57:10;1.30;;;1.03;;
10120;SDS011;5100;45.176;5.714;2023-03-14T06:59:36;1.10;;;1.00;;
10120;SDS011;5100;45.176;5.714;2023-03-14T07:02:03;1.70;;;1.00;;
10120;SDS011;5100;45.176;5.714;2023-03-14T07:04:29;1.37;;;1.07;;
10120;SDS011;5100;45.176;5.714;2023-03-14T07:06:55;1.00;;;1.00;;
10120;SDS011;5100;45.176;5.714;2023-03-14T07:09:23;1.33;;;1.10;;
10120;SDS011;5100;45.176;5.714;2023-03-14T07:11:49;1.00;;;0.90;;
10120;SDS011;5100;45.176;5.714;2023-03-14T07:14:15;1.43;;;1.20;;
10120;SDS011;5100;45.176;5.714;2023-03-14T07:16:42;3.53;;;1.50;;
10120;SDS011;5100;45.176;5.714;2023-03-14T07:19:08;2.33;;;1.27;;
10120;SDS011;5100;45.176;5.714;2023-03-14T07:21:35;2.20;;;1.27;;
10120;SDS011;5100;45.176;5.714;2023-03-14T07:24:03;1.30;;;1.20;;
10120;SDS011;5100;45.176;5.714;2023-03-14T07:26:31;1.57;;;1.37;;
10120;SDS011;5100;45.176;5.714;2023-03-14T07:28:57;2.58;;;1.70;;
10120;SDS011;5100;45.176;5.714;2023-03-14T07:31:23;1.30;;;1.20;;
10120;SDS011;5100;45.176;5.714;2023-03-14T07:33:50;2.40;;;1.70;;
10120;SDS011;5100;45.176;5.714;2023-03-14T07:36:16;2.83;;;2.03;;
10120;SDS011;5100;45.176;5.714;2023-03-14T07:38:43;2.10;;;1.90;;
10120;SDS011;5100;45.176;5.714;2023-03-14T07:41:10;3.43;;;1.73;;
10120;SDS011;5100;45.176;5.714;2023-03-14T07:43:36;2.57;;;1.83;;
10120;SDS011;5100;45.176;5.714;2023-03-14T07:46:03;2.92;;;1.70;;
10120;SDS011;5100;45.176;5.714;2023-03-14T07:48:29;1.90;;;1.70;;
10120;SDS011;5100;45.176;5.714;2023-03-14T07:50:55;3.30;;;1.90;;
10120;SDS011;5100;45.176;5.714;2023-03-14T07:53:22;2.10;;;1.83;;
10120;SDS011;5100;45.176;5.714;2023-03-14T07:55:53;1.87;;;1.70;;
10120;SDS011;5100;45.176;5.714;2023-03-14T07:58:20;2.30;;;2.03;;
10120;SDS011;5100;45.176;5.714;2023-03-14T08:00:50;4.50;;;1.93;;
10120;SDS011;5100;45.176;5.714;2023-03-14T08:03:17;2.57;;;1.50;;
10120;SDS011;5100;45.176;5.714;2023-03-14T08:05:46;2.62;;;2.03;;
10120;SDS011;5100;45.176;5.714;2023-03-14T08:08:13;4.18;;;2.28;;
10120;SDS011;5100;45.176;5.714;2023-03-14T08:10:39;3.20;;;2.22;;
10120;SDS011;5100;45.176;5.714;2023-03-14T08:13:05;6.00;;;5.40;;
10120;SDS011;5100;45.176;5.714;2023-03-14T08:15:32;3.28;;;2.25;;
10120;SDS011;5100;45.176;5.714;2023-03-14T08:17:58;3.23;;;2.20;;
10120;SDS011;5100;45.176;5.714;2023-03-14T08:20:25;2.58;;;1.80;;
10120;SDS011;5100;45.176;5.714;2023-03-14T08:22:55;2.83;;;1.70;;
10120;SDS011;5100;45.176;5.714;2023-03-14T08:25:25;2.72;;;1.85;;
10120;SDS011;5100;45.176;5.714;2023-03-14T08:27:52;2.00;;;1.50;;
10120;SDS011;5100;45.176;5.714;2023-03-14T08:30:19;3.70;;;1.70;;
10120;SDS011;5100;45.176;5.714;2023-03-14T08:32:46;3.40;;;1.80;;
10120;SDS011;5100;45.176;5.714;2023-03-14T08:35:13;3.23;;;1.60;;
10120;SDS011;5100;45.176;5.714;2023-03-14T08:37:39;2.37;;;1.80;;
10120;SDS011;5100;45.176;5.714;2023-03-14T08:40:07;2.23;;;1.90;;
10120;SDS011;5100;45.176;5.714;2023-03-14T08:42:35;2.40;;;2.20;;
10120;SDS011;5100;45.176;5.714;2023-03-14T08:45:02;3.43;;;2.20;;
10120;SDS011;5100;45.176;5.714;2023-03-14T08:47:29;2.40;;;1.77;;
10120;SDS011;5100;45.176;5.714;2023-03-14T08:49:55;2.13;;;1.60;;
10120;SDS011;5100;45.176;5.714;2023-03-14T08:52:21;2.63;;;1.70;;
10120;SDS011;5100;45.176;5.714;2023-03-14T08:54:48;3.93;;;1.73;;
10120;SDS011;5100;45.176;5.714;2023-03-14T08:57:14;1.70;;;1.60;;
10120;SDS011;5100;45.176;5.714;2023-03-14T08:59:40;2.50;;;1.77;;
10120;SDS011;5100;45.176;5.714;2023-03-14T09:02:08;2.50;;;2.17;;
10120;SDS011;5100;45.176;5.714;2023-03-14T09:04:37;2.90;;;1.70;;
10120;SDS011;5100;45.176;5.714;2023-03-14T09:07:04;2.30;;;1.60;;
10120;SDS011;5100;45.176;5.714;2023-03-14T09:09:30;2.37;;;1.60;;
10120;SDS011;5100;45.176;5.714;2023-03-14T09:11:56;2.17;;;1.80;;
10120;SDS011;5100;45.176;5.714;2023-03-14T09:14:22;4.03;;;2.20;;
10120;SDS011;5100;45.176;5.714;2023-03-14T09:16:49;3.80;;;1.83;;
10120;SDS011;5100;45.176;5.714;2023-03-14T09:19:16;2.73;;;1.90;;
10120;SDS011;5100;45.176;5.714;2023-03-14T09:21:42;1.95;;;1.50;;
10120;SDS011;5100;45.176;5.714;2023-03-14T09:24:08;4.50;;;4.10;;
10120;SDS011;5100;45.176;5.714;2023-03-14T09:26:34;2.00;;;1.73;;
10120;SDS011;5100;45.176;5.714;2023-03-14T09:29:00;1.37;;;1.20;;
10120;SDS011;5100;45.176;5.714;2023-03-14T09:31:27;2.50;;;1.20;;
10120;SDS011;5100;45.176;5.714;2023-03-14T09:33:55;1.50;;;1.40;;
10120;SDS011;5100;45.176;5.714;2023-03-14T09:36:21;2.23;;;1.50;;
10120;SDS011;5100;45.176;5.714;2023-03-14T09:38:48;2.87;;;1.47;;
10120;SDS011;5100;45.176;5.714;2023-03-14T09:41:24;1.50;;;1.30;;
10120;SDS011;5100;45.176;5.714;2023-03-14T09:46:31;1.85;;;1.30;;
10120;SDS011;5100;45.176;5.714;2023-03-14T09:49:01;1.52;;;1.20;;
10120;SDS011;5100;45.176;5.714;2023-03-14T09:51:27;2.00;;;1.40;;
10120;SDS011;5100;45.176;5.714;2023-03-14T09:53:54;1.50;;;1.40;;
10120;SDS011;5100;45.176;5.714;2023-03-14T09:56:22;1.50;;;1.40;;
10120;SDS011;5100;45.176;5.714;2023-03-14T09:58:58;2.17;;;1.70;;
10120;SDS011;5100;45.176;5.714;2023-03-14T10:01:27;11.63;;;2.87;;
10120;SDS011;5100;45.176;5.714;2023-03-14T10:03:57;2.73;;;1.60;;
10120;SDS011;5100;45.176;5.714;2023-03-14T10:06:29;3.70;;;2.07;;
10120;SDS011;5100;45.176;5.714;2023-03-14T10:08:56;6.13;;;2.43;;
10120;SDS011;5100;45.176;5.714;2023-03-14T10:11:23;2.27;;;1.67;;
10120;SDS011;5100;45.176;5.714;2023-03-14T10:16:42;1.07;;;1.00;;
10120;SDS011;5100;45.176;5.714;2023-03-14T10:19:10;1.40;;;1.30;;
10120;SDS011;5100;45.176;5.714;2023-03-14T10:21:40;2.30;;;1.30;;
10120;SDS011;5100;45.176;5.714;2023-03-14T10:24:27;2.57;;;1.43;;
10120;SDS011;5100;45.176;5.714;2023-03-14T10:27:02;1.63;;;1.40;;
10120;SDS011;5100;45.176;5.714;2023-03-14T10:29:31;1.63;;;1.30;;
10120;SDS011;5100;45.176;5.714;2023-03-14T10:32:03;2.93;;;1.33;;
10120;SDS011;5100;45.176;5.714;2023-03-14T10:34:36;2.27;;;1.30;;
10120;SDS011;5100;45.176;5.714;2023-03-14T10:37:07;4.37;;;1.53;;
10120;SDS011;5100;45.176;5.714;2023-03-14T10:39:53;1.20;;;1.10;;
10120;SDS011;5100;45.176;5.714;2023-03-14T10:42:28;3.00;;;1.50;;
10120;SDS011;5100;45.176;5.714;2023-03-14T10:44:58;3.57;;;1.50;;
10120;SDS011;5100;45.176;5.714;2023-03-14T10:47:29;2.80;;;1.27;;
10120;SDS011;5100;45.176;5.714;2023-03-14T10:49:56;2.63;;;1.50;;
10120;SDS011;5100;45.176;5.714;2023-03-14T10:52:26;2.93;;;1.30;;
10120;SDS011;5100;45.176;5.714;2023-03-14T10:54:59;2.60;;;1.53;;
10120;SDS011;5100;45.176;5.714;2023-03-14T10:57:27;4.17;;;1.57;;
10120;SDS011;5100;45.176;5.714;2023-03-14T10:59:54;2.83;;;1.90;;
10120;SDS011;5100;45.176;5.714;2023-03-14T11:08:11;2.43;;;1.03;;
10120;SDS011;5100;45.176;5.714;2023-03-14T11:10:48;2.60;;;1.30;;
10120;SDS011;5100;45.176;5.714;2023-03-14T11:13:41;2.53;;;1.90;;
10120;SDS011;5100;45.176;5.714;2023-03-14T11:16:34;2.73;;;1.60;;
10120;SDS011;5100;45.176;5.714;2023-03-14T11:25:04;3.70;;;1.40;;
10120;SDS011;5100;45.176;5.714;2023-03-14T11:27:39;3.20;;;1.33;;
10120;SDS011;5100;45.176;5.714;2023-03-14T11:30:19;1.98;;;1.45;;
10120;SDS011;5100;45.176;5.714;2023-03-14T11:40:52;2.95;;;1.70;;
10120;SDS011;5100;45.176;5.714;2023-03-14T11:43:24;2.22;;;1.25;;
10120;SDS011;5100;45.176;5.714;2023-03-14T11:46:05;2.75;;;1.40;;
10120;SDS011;5100;45.176;5.714;2023-03-14T11:48:44;3.53;;;1.60;;
10120;SDS011;5100;45.176;5.714;2023-03-14T11:51:22;2.30;;;1.55;;
10120;SDS011;5100;45.176;5.714;2023-03-14T11:54:03;2.40;;;1.60;;
10120;SDS011;5100;45.176;5.714;2023-03-14T11:56:51;2.05;;;1.20;;
10120;SDS011;5100;45.176;5.714;2023-03-14T11:59:28;2.33;;;1.50;;
10120;SDS011;5100;45.176;5.714;2023-03-14T12:02:09;8.38;;;1.70;;
10120;SDS011;5100;45.176;5.714;2023-03-14T12:07:29;3.10;;;1.27;;
10120;SDS011;5100;45.176;5.714;2023-03-14T12:10:25;3.03;;;1.58;;
10120;SDS011;5100;45.176;5.714;2023-03-14T12:12:52;1.80;;;1.17;;
10120;SDS011;5100;45.176;5.714;2023-03-14T12:15:20;3.95;;;1.48;;
10120;SDS011;5100;45.176;5.714;2023-03-14T12:17:52;4.05;;;1.50;;
10120;SDS011;5100;45.176;5.714;2023-03-14T12:20:21;5.97;;;1.55;;
10120;SDS011;5100;45.176;5.714;2023-03-14T12:25:19;4.70;;;1.60;;
10120;SDS011;5100;45.176;5.714;2023-03-14T12:35:56;1.83;;;1.17;;
10120;SDS011;5100;45.176;5.714;2023-03-14T12:38:28;2.08;;;1.50;;
10120;SDS011;5100;45.176;5.714;2023-03-14T12:47:13;1.90;;;1.37;;
10120;SDS011;5100;45.176;5.714;2023-03-14T12:49:44;2.75;;;1.40;;
10120;SDS011;5100;45.176;5.714;2023-03-14T12:52:16;3.28;;;1.30;;
10120;SDS011;5100;45.176;5.714;2023-03-14T12:57:37;4.03;;;1.52;;
10120;SDS011;5100;45.176;5.714;2023-03-14T13:00:17;2.17;;;1.37;;
10120;SDS011;5100;45.176;5.714;2023-03-14T13:02:46;2.72;;;1.50;;
10120;SDS011;5100;45.176;5.714;2023-03-14T13:05:16;4.90;;;1.50;;
10120;SDS011;5100;45.176;5.714;2023-03-14T13:10:26;4.50;;;1.98;;
10120;SDS011;5100;45.176;5.714;2023-03-14T13:12:57;1.48;;;1.10;;
10120;SDS011;5100;45.176;5.714;2023-03-14T13:15:38;2.22;;;1.40;;
10120;SDS011;5100;45.176;5.714;2023-03-14T13:18:48;2.28;;;1.10;;
10120;SDS011;5100;45.176;5.714;2023-03-14T13:20:56;1.73;;;1.17;;
10120;SDS011;5100;45.176;5.714;2023-03-14T13:23:28;2.90;;;1.20;;
10120;SDS011;5100;45.176;5.714;2023-03-14T13:25:56;1.20;;;1.10;;
10120;SDS011;5100;45.176;5.714;2023-03-14T13:28:24;2.00;;;1.00;;
10120;SDS011;5100;45.176;5.714;2023-03-14T13:30:56;1.77;;;1.20;;
10120;SDS011;5100;45.176;5.714;2023-03-14T13:33:24;2.45;;;1.10;;
10120;SDS011;5100;45.176;5.714;2023-03-14T13:35:55;2.15;;;1.20;;
10120;SDS011;5100;45.176;5.714;2023-03-14T13:38:30;2.12;;;1.02;;
10120;SDS011;5100;45.176;5.714;2023-03-14T13:41:03;1.33;;;1.15;;
10120;SDS011;5100;45.176;5.714;2023-03-14T13:43:32;2.00;;;1.45;;
10120;SDS011;5100;45.176;5.714;2023-03-14T13:46:20;2.87;;;1.37;;
10120;SDS011;5100;45.176;5.714;2023-03-14T13:48:58;1.50;;;1.10;;
10120;SDS011;5100;45.176;5.714;2023-03-14T13:51:26;2.47;;;1.20;;
10120;SDS011;5100;45.176;5.714;2023-03-14T13:53:58;2.25;;;1.40;;
10120;SDS011;5100;45.176;5.714;2023-03-14T13:56:26;3.12;;;1.45;;
10120;SDS011;5100;45.176;5.714;2023-03-14T13:58:54;3.17;;;1.60;;
10120;SDS011;5100;45.176;5.714;2023-03-14T14:04:02;2.95;;;1.10;;
10120;SDS011;5100;45.176;5.714;2023-03-14T14:09:16;1.77;;;1.20;;
10120;SDS011;5100;45.176;5.714;2023-03-14T14:11:47;1.83;;;1.30;;
10120;SDS011;5100;45.176;5.714;2023-03-14T14:14:25;1.10;;;1.00;;
10120;SDS011;5100;45.176;5.714;2023-03-14T14:16:59;3.22;;;1.20;;
10120;SDS011;5100;45.176;5.714;2023-03-14T14:19:27;1.85;;;1.20;;
10120;SDS011;5100;45.176;5.714;2023-03-14T14:21:55;2.65;;;1.08;;
10120;SDS011;5100;45.176;5.714;2023-03-14T14:24:23;2.37;;;1.40;;
10120;SDS011;5100;45.176;5.714;2023-03-14T14:26:54;1.30;;;1.20;;
10120;SDS011;5100;45.176;5.714;2023-03-14T14:29:29;3.78;;;1.40;;
10120;SDS011;5100;45.176;5.714;2023-03-14T14:32:09;3.53;;;1.65;;
10120;SDS011;5100;45.176;5.714;2023-03-14T14:34:41;3.40;;;1.80;;
10120;SDS011;5100;45.176;5.714;2023-03-14T14:38:00;2.70;;;1.50;;
10120;SDS011;5100;45.176;5.714;2023-03-14T14:40:10;2.50;;;1.60;;
10120;SDS011;5100;45.176;5.714;2023-03-14T14:42:44;1.45;;;1.30;;
10120;SDS011;5100;45.176;5.714;2023-03-14T14:45:13;2.95;;;1.37;;
10120;SDS011;5100;45.176;5.714;2023-03-14T14:50:33;1.15;;;1.00;;
10120;SDS011;5100;45.176;5.714;2023-03-14T14:53:20;1.20;;;0.90;;
10120;SDS011;5100;45.176;5.714;2023-03-14T14:55:57;1.33;;;0.95;;
10120;SDS011;5100;45.176;5.714;2023-03-14T14:58:26;1.10;;;1.00;;
10120;SDS011;5100;45.176;5.714;2023-03-14T15:01:04;1.60;;;0.93;;
10120;SDS011;5100;45.176;5.714;2023-03-14T15:03:39;1.10;;;0.90;;
10120;SDS011;5100;45.176;5.714;2023-03-14T15:06:08;0.70;;;0.70;;
10120;SDS011;5100;45.176;5.714;2023-03-14T15:08:38;0.95;;;0.93;;
10120;SDS011;5100;45.176;5.714;2023-03-14T15:11:04;1.98;;;1.17;;
10120;SDS011;5100;45.176;5.714;2023-03-14T15:13:31;1.60;;;1.17;;
10120;SDS011;5100;45.176;5.714;2023-03-14T15:15:57;3.47;;;1.73;;
10120;SDS011;5100;45.176;5.714;2023-03-14T15:18:24;4.43;;;1.00;;
10120;SDS011;5100;45.176;5.714;2023-03-14T15:20:53;2.50;;;1.17;;
10120;SDS011;5100;45.176;5.714;2023-03-14T15:23:20;1.80;;;1.10;;
10120;SDS011;5100;45.176;5.714;2023-03-14T15:25:47;4.70;;;1.50;;
10120;SDS011;5100;45.176;5.714;2023-03-14T15:28:18;3.73;;;1.67;;
10120;SDS011;5100;45.176;5.714;2023-03-14T15:30:49;2.00;;;1.23;;
10120;SDS011;5100;45.176;5.714;2023-03-14T15:33:17;1.30;;;1.10;;
10120;SDS011;5100;45.176;5.714;2023-03-14T15:35:44;2.93;;;1.50;;
10120;SDS011;5100;45.176;5.714;2023-03-14T15:38:11;2.80;;;1.70;;
10120;SDS011;5100;45.176;5.714;2023-03-14T15:40:39;3.13;;;1.20;;
10120;SDS011;5100;45.176;5.714;2023-03-14T15:43:06;1.57;;;1.43;;
10120;SDS011;5100;45.176;5.714;2023-03-14T15:45:32;2.23;;;1.37;;
10120;SDS011;5100;45.176;5.714;2023-03-14T15:47:59;1.83;;;1.43;;
10120;SDS011;5100;45.176;5.714;2023-03-14T15:50:25;1.73;;;1.10;;
10120;SDS011;5100;45.176;5.714;2023-03-14T15:52:52;3.80;;;1.33;;
10120;SDS011;5100;45.176;5.714;2023-03-14T15:55:19;3.60;;;1.90;;
10120;SDS011;5100;45.176;5.714;2023-03-14T15:57:45;1.87;;;1.33;;
10120;SDS011;5100;45.176;5.714;2023-03-14T16:00:12;2.70;;;1.30;;
10120;SDS011;5100;45.176;5.714;2023-03-14T16:02:42;1.43;;;1.00;;
10120;SDS011;5100;45.176;5.714;2023-03-14T16:05:09;4.03;;;1.20;;
10120;SDS011;5100;45.176;5.714;2023-03-14T16:07:36;1.27;;;0.90;;
10120;SDS011;5100;45.176;5.714;2023-03-14T16:10:03;0.80;;;0.80;;
10120;SDS011;5100;45.176;5.714;2023-03-14T16:12:30;1.00;;;1.00;;
10120;SDS011;5100;45.176;5.714;2023-03-14T16:14:56;1.00;;;0.87;;